createdAt,value
2023-02-12T00:01:52.738Z,22.30
2023-02-12T00:04:20.878Z,17.55
2023-02-12T00:06:49.810Z,26.13
2023-02-12T00:09:20.328Z,16.52
2023-02-12T00:11:50.203Z,14.98
2023-02-12T00:14:19.076Z,15.65
2023-02-12T00:16:50.040Z,20.52
2023-02-12T00:19:20.694Z,18.73
2023-02-12T00:21:49.580Z,15.77
2023-02-12T00:24:18.340Z,14.75
2023-02-12T00:26:48.615Z,15.93
2023-02-12T00:29:17.075Z,16.08
2023-02-12T00:31:45.624Z,18.85
2023-02-12T00:34:14.249Z,16.30
2023-02-12T00:36:44.168Z,15.35
2023-02-12T00:39:13.336Z,17.05
2023-02-12T00:41:43.024Z,19.70
2023-02-12T00:44:13.127Z,16.58
2023-02-12T00:46:42.259Z,37.97
2023-02-12T00:49:11.512Z,16.48
2023-02-12T00:51:40.336Z,13.25
2023-02-12T00:54:10.870Z,14.57
2023-02-12T00:56:39.964Z,14.48
2023-02-12T00:59:08.569Z,13.73
2023-02-12T01:01:37.412Z,20.55
2023-02-12T01:04:06.010Z,13.27
2023-02-12T01:06:34.926Z,20.20
2023-02-12T01:09:05.172Z,15.98
2023-02-12T01:11:35.665Z,15.10
2023-02-12T01:14:04.386Z,15.07
2023-02-12T01:16:36.636Z,23.27
2023-02-12T01:19:06.383Z,27.55
2023-02-12T01:21:37.283Z,15.10
2023-02-12T01:24:06.408Z,13.32
2023-02-12T01:26:36.446Z,18.33
2023-02-12T01:29:09.208Z,18.63
2023-02-12T01:31:40.917Z,13.02
2023-02-12T01:34:14.097Z,17.17
2023-02-12T01:36:42.491Z,17.17
2023-02-12T01:39:12.363Z,14.48
2023-02-12T01:41:46.654Z,18.77
2023-02-12T01:44:17.932Z,14.43
2023-02-12T01:46:47.646Z,14.60
2023-02-12T01:49:21.952Z,14.90
2023-02-12T01:51:54.948Z,12.45
2023-02-12T01:54:26.843Z,14.93
2023-02-12T01:56:58.105Z,23.58
2023-02-12T01:59:26.996Z,16.27
2023-02-12T02:01:56.216Z,17.23
2023-02-12T02:04:28.761Z,15.48
2023-02-12T02:06:59.901Z,13.95
2023-02-12T02:09:29.819Z,17.05
2023-02-12T02:12:17.168Z,14.27
2023-02-12T02:14:47.060Z,13.48
2023-02-12T02:17:28.270Z,12.85
2023-02-12T02:20:18.258Z,15.40
2023-02-12T02:22:53.146Z,14.60
2023-02-12T02:25:58.415Z,13.85
2023-02-12T02:28:53.702Z,14.63
2023-02-12T02:31:32.034Z,14.68
2023-02-12T02:34:08.086Z,15.05
2023-02-12T02:36:58.049Z,14.80
2023-02-12T02:39:35.728Z,12.93
2023-02-12T02:42:11.223Z,14.10
2023-02-12T02:44:48.055Z,12.63
2023-02-12T02:47:21.627Z,14.85
2023-02-12T02:49:55.932Z,13.77
2023-02-12T02:52:27.879Z,16.15
2023-02-12T02:55:02.328Z,15.80
2023-02-12T02:57:37.365Z,14.02
2023-02-12T03:00:13.442Z,15.98
2023-02-12T03:02:49.376Z,14.52
2023-02-12T03:05:22.935Z,15.48
2023-02-12T03:07:55.500Z,17.45
2023-02-12T03:10:27.301Z,16.65
2023-02-12T03:12:59.725Z,18.83
2023-02-12T03:15:34.398Z,16.55
2023-02-12T03:18:09.171Z,14.38
2023-02-12T03:20:44.167Z,15.13
2023-02-12T03:23:18.685Z,18.40
2023-02-12T03:25:57.224Z,14.50
2023-02-12T03:28:30.574Z,17.00
2023-02-12T03:31:08.494Z,17.65
2023-02-12T03:33:46.635Z,20.13
2023-02-12T03:36:28.028Z,16.05
2023-02-12T03:38:59.095Z,21.33
2023-02-12T03:41:35.300Z,17.95
2023-02-12T03:44:12.421Z,15.88
2023-02-12T03:46:45.002Z,27.27
2023-02-12T03:49:23.208Z,29.17
2023-02-12T03:51:52.223Z,32.05
2023-02-12T03:54:22.749Z,35.53
2023-02-12T03:56:55.894Z,48.78
2023-02-12T03:59:26.070Z,39.93
2023-02-12T04:01:56.613Z,27.02
2023-02-12T04:04:27.883Z,26.52
2023-02-12T04:06:58.272Z,24.13
2023-02-12T04:09:29.071Z,21.05
2023-02-12T04:12:12.225Z,17.95
2023-02-12T04:14:47.964Z,16.88
2023-02-12T04:17:24.607Z,16.88
2023-02-12T04:20:07.249Z,14.95
2023-02-12T04:22:46.996Z,15.65
2023-02-12T04:25:29.198Z,14.48
2023-02-12T04:28:08.475Z,15.45
2023-02-12T04:30:40.400Z,14.35
2023-02-12T04:33:12.942Z,14.32
2023-02-12T04:35:50.081Z,13.98
2023-02-12T04:38:23.872Z,16.52
2023-02-12T04:40:53.579Z,16.75
2023-02-12T04:43:30.407Z,17.83
2023-02-12T04:45:59.046Z,17.10
2023-02-12T04:48:27.527Z,17.25
2023-02-12T04:51:00.413Z,16.70
2023-02-12T04:53:28.974Z,15.18
2023-02-12T04:55:57.410Z,15.30
2023-02-12T04:58:26.248Z,15.55
2023-02-12T05:00:54.759Z,15.70
2023-02-12T05:03:23.045Z,15.48
2023-02-12T05:05:51.320Z,20.63
2023-02-12T05:08:21.035Z,17.50
2023-02-12T05:10:49.458Z,15.43
2023-02-12T05:13:17.662Z,15.95
2023-02-12T05:15:45.736Z,16.30
2023-02-12T05:18:14.536Z,15.00
2023-02-12T05:20:42.557Z,15.75
2023-02-12T05:23:10.723Z,13.63
2023-02-12T05:25:40.334Z,15.55
2023-02-12T05:28:08.443Z,14.63
2023-02-12T05:30:36.865Z,14.98
2023-02-12T05:33:05.426Z,13.48
2023-02-12T05:35:36.151Z,13.63
2023-02-12T05:38:04.392Z,13.68
2023-02-12T05:40:32.415Z,12.68
2023-02-12T05:43:01.782Z,14.27
2023-02-12T05:45:30.884Z,14.35
2023-02-12T05:47:59.101Z,14.68
2023-02-12T05:50:27.407Z,17.17
2023-02-12T05:52:55.422Z,14.38
2023-02-12T05:55:23.530Z,14.77
2023-02-12T05:57:52.494Z,14.75
2023-02-12T06:00:22.988Z,15.98
2023-02-12T06:02:51.070Z,14.18
2023-02-12T06:05:19.524Z,14.50
2023-02-12T06:07:47.728Z,14.05
2023-02-12T06:10:15.983Z,13.50
2023-02-12T06:12:44.130Z,13.60
2023-02-12T06:15:12.513Z,14.25
2023-02-12T06:17:42.121Z,13.02
2023-02-12T06:20:10.407Z,13.27
2023-02-12T06:22:38.769Z,13.95
2023-02-12T06:25:07.886Z,14.77
2023-02-12T06:27:35.912Z,15.10
2023-02-12T06:30:04.371Z,13.63
2023-02-12T06:32:32.557Z,13.68
2023-02-12T06:35:02.063Z,14.32
2023-02-12T06:37:30.324Z,13.88
2023-02-12T06:39:59.325Z,13.55
2023-02-12T06:42:27.490Z,13.23
2023-02-12T06:44:55.977Z,16.38
2023-02-12T06:47:24.167Z,14.68
2023-02-12T06:49:52.272Z,13.73
2023-02-12T06:52:22.873Z,13.52
2023-02-12T06:54:51.146Z,14.13
2023-02-12T06:57:19.239Z,13.80
2023-02-12T06:59:47.409Z,16.17
2023-02-12T07:02:16.022Z,14.25
2023-02-12T07:04:44.376Z,15.18
2023-02-12T07:07:13.079Z,15.30
2023-02-12T07:09:43.085Z,15.10
2023-02-12T07:12:11.577Z,14.23
2023-02-12T07:14:39.971Z,15.38
2023-02-12T07:17:09.782Z,13.95
2023-02-12T07:19:38.879Z,14.68
2023-02-12T07:22:06.984Z,16.02
2023-02-12T07:24:35.025Z,13.25
2023-02-12T07:27:04.672Z,16.65
2023-02-12T07:29:33.122Z,15.52
2023-02-12T07:32:02.174Z,13.63
2023-02-12T07:34:30.382Z,14.68
2023-02-12T07:36:58.681Z,15.82
2023-02-12T07:39:26.943Z,16.35
2023-02-12T07:41:55.600Z,16.30
2023-02-12T07:44:27.896Z,16.17
2023-02-12T07:46:56.041Z,15.88
2023-02-12T07:49:24.696Z,14.77
2023-02-12T07:51:53.128Z,15.30
2023-02-12T07:54:24.641Z,14.52
2023-02-12T07:56:56.192Z,16.40
2023-02-12T07:59:25.726Z,12.38
2023-02-12T08:01:54.469Z,14.32
2023-02-12T08:04:26.162Z,13.95
2023-02-12T08:06:56.168Z,14.23
2023-02-12T08:09:27.761Z,16.65
2023-02-12T08:11:56.034Z,17.20
2023-02-12T08:14:26.215Z,14.70
2023-02-12T08:16:54.687Z,13.68
2023-02-12T08:19:26.541Z,14.75
2023-02-12T08:21:57.128Z,13.90
2023-02-12T08:24:25.956Z,13.90
2023-02-12T08:26:54.028Z,16.40
2023-02-12T08:29:25.349Z,17.63
2023-02-12T08:31:59.587Z,17.90
2023-02-12T08:34:29.907Z,15.50
2023-02-12T08:36:59.060Z,14.85
2023-02-12T08:39:29.852Z,16.30
2023-02-12T08:41:59.573Z,15.65
2023-02-12T08:44:29.690Z,15.38
2023-02-12T08:46:59.703Z,15.27
2023-02-12T08:49:29.559Z,16.33
2023-02-12T08:51:59.993Z,15.38
2023-02-12T08:54:30.215Z,16.08
2023-02-12T08:57:00.805Z,15.95
2023-02-12T08:59:29.580Z,17.27
2023-02-12T09:01:59.568Z,18.65
2023-02-12T09:04:29.690Z,14.57
2023-02-12T09:06:57.888Z,14.70
2023-02-12T09:09:26.778Z,15.43
2023-02-12T09:11:55.084Z,16.48
2023-02-12T09:14:25.262Z,14.63
2023-02-12T09:16:55.036Z,14.45
2023-02-12T09:19:25.122Z,15.75
2023-02-12T09:21:55.721Z,14.10
2023-02-12T09:24:25.014Z,16.52
2023-02-12T09:26:53.342Z,16.02
2023-02-12T09:29:21.676Z,15.05
2023-02-12T09:31:50.132Z,16.25
2023-02-12T09:34:18.424Z,14.13
2023-02-12T09:36:49.536Z,15.73
2023-02-12T09:39:18.264Z,17.65
2023-02-12T09:42:18.936Z,17.40
2023-02-12T09:44:55.400Z,16.30
2023-02-12T09:47:32.746Z,15.25
2023-02-12T09:50:18.830Z,16.40
2023-02-12T09:52:49.972Z,15.38
2023-02-12T09:55:20.172Z,15.57
2023-02-12T09:57:49.003Z,15.02
2023-02-12T10:00:23.661Z,16.30
2023-02-12T10:02:54.824Z,13.70
2023-02-12T10:05:28.261Z,15.20
2023-02-12T10:08:25.089Z,16.38
2023-02-12T10:10:55.137Z,17.15
2023-02-12T10:13:38.775Z,14.60
2023-02-12T10:16:15.791Z,15.95
2023-02-12T10:19:06.364Z,16.10
2023-02-12T10:21:50.493Z,16.77
2023-02-12T10:24:34.783Z,17.33
2023-02-12T10:27:07.590Z,16.08
2023-02-12T10:29:39.231Z,16.15
2023-02-12T10:32:14.867Z,15.02
2023-02-12T10:34:44.249Z,15.60
2023-02-12T10:37:23.201Z,14.93
2023-02-12T10:39:59.461Z,15.38
2023-02-12T10:42:37.767Z,14.50
2023-02-12T10:45:07.379Z,15.65
2023-02-12T10:47:35.900Z,17.05
2023-02-12T10:50:21.541Z,15.30
2023-02-12T10:52:55.067Z,14.45
2023-02-12T10:55:30.484Z,13.93
2023-02-12T10:57:59.618Z,13.48
2023-02-12T11:00:32.130Z,14.68
2023-02-12T11:03:07.730Z,13.32
2023-02-12T11:05:37.818Z,13.73
2023-02-12T11:08:07.014Z,14.73
2023-02-12T11:10:40.336Z,15.40
2023-02-12T11:13:24.583Z,13.45
2023-02-12T11:15:54.292Z,16.17
2023-02-12T11:18:26.549Z,14.70
2023-02-12T11:21:00.372Z,14.65
2023-02-12T11:23:31.176Z,13.02
2023-02-12T11:26:06.122Z,13.85
2023-02-12T11:28:37.376Z,13.50
2023-02-12T11:31:21.800Z,15.50
2023-02-12T11:36:39.645Z,12.15
2023-02-12T11:39:16.291Z,16.30
2023-02-12T11:41:46.219Z,13.48
2023-02-12T11:44:22.560Z,15.45
2023-02-12T11:46:54.115Z,13.90
2023-02-12T11:49:27.050Z,15.20
2023-02-12T11:51:56.851Z,15.85
2023-02-12T11:54:29.090Z,16.23
2023-02-12T11:56:59.511Z,13.70
2023-02-12T11:59:36.727Z,13.45
2023-02-12T12:02:17.969Z,16.65
2023-02-12T12:04:49.913Z,13.52
2023-02-12T12:07:24.225Z,13.77
2023-02-12T12:10:00.682Z,15.93
2023-02-12T12:12:41.509Z,13.18
2023-02-12T12:15:36.206Z,13.45
2023-02-12T12:21:00.646Z,14.38
2023-02-12T12:23:37.366Z,13.88
2023-02-12T12:26:10.872Z,13.85
2023-02-12T12:28:47.180Z,14.80
2023-02-12T12:31:19.987Z,13.63
2023-02-12T12:33:52.175Z,16.00
2023-02-12T12:36:50.498Z,14.48
2023-02-12T12:39:30.115Z,15.48
2023-02-12T12:42:31.862Z,14.90
2023-02-12T12:45:22.295Z,15.07
2023-02-12T12:48:02.328Z,17.15
2023-02-12T12:50:45.988Z,15.30
2023-02-12T12:53:27.405Z,14.90
2023-02-12T12:56:11.942Z,14.40
2023-02-12T12:58:54.649Z,14.20
2023-02-12T13:01:46.459Z,15.52
2023-02-12T13:04:55.228Z,16.00
2023-02-12T13:07:40.033Z,15.65
2023-02-12T13:10:30.911Z,15.57
2023-02-12T13:13:24.206Z,15.63
2023-02-12T13:16:00.538Z,15.60
2023-02-12T13:18:43.871Z,14.63
2023-02-12T13:21:21.254Z,14.68
2023-02-12T13:23:56.328Z,15.32
2023-02-12T13:26:32.387Z,13.00
2023-02-12T13:29:06.856Z,12.60
2023-02-12T13:31:42.775Z,14.43
2023-02-12T13:34:17.745Z,13.70
2023-02-12T13:36:48.327Z,13.55
2023-02-12T13:39:26.660Z,14.57
2023-02-12T13:42:04.641Z,14.32
2023-02-12T13:44:42.230Z,14.10
2023-02-12T13:47:19.840Z,13.98
2023-02-12T13:49:56.802Z,13.68
2023-02-12T13:52:32.461Z,14.38
2023-02-12T13:55:18.669Z,14.32
2023-02-12T13:58:08.412Z,15.25
2023-02-12T14:01:08.965Z,13.85
2023-02-12T14:03:38.754Z,12.63
2023-02-12T14:06:17.324Z,13.48
2023-02-12T14:08:48.272Z,14.30
2023-02-12T14:11:19.461Z,15.10
2023-02-12T14:13:53.971Z,14.07
2023-02-12T14:16:40.275Z,14.68
2023-02-12T14:19:41.702Z,14.90
2023-02-12T14:22:36.988Z,14.05
2023-02-12T14:25:32.909Z,13.13
2023-02-12T14:28:13.672Z,14.35
2023-02-12T14:30:44.543Z,15.93
2023-02-12T14:33:26.818Z,15.98
2023-02-12T14:36:18.339Z,12.85
2023-02-12T14:39:05.696Z,14.15
2023-02-12T14:41:38.744Z,13.68
2023-02-12T14:44:44.858Z,13.05
2023-02-12T14:47:17.326Z,15.48
2023-02-12T14:49:48.789Z,13.85
2023-02-12T14:52:20.161Z,14.48
2023-02-12T14:54:53.232Z,14.75
2023-02-12T14:57:28.164Z,16.40
2023-02-12T15:00:00.517Z,15.65
2023-02-12T15:02:32.017Z,15.32
2023-02-12T15:05:04.728Z,16.00
2023-02-12T15:07:43.318Z,15.35
2023-02-12T15:10:20.710Z,15.40
2023-02-12T15:12:55.103Z,15.98
2023-02-12T15:15:31.156Z,13.50
2023-02-12T15:18:04.323Z,15.02
2023-02-12T15:20:36.660Z,19.50
2023-02-12T15:23:36.431Z,14.30
2023-02-12T15:26:07.989Z,14.48
2023-02-12T15:28:38.273Z,13.18
2023-02-12T15:31:11.089Z,13.50
2023-02-12T15:33:46.746Z,16.45
2023-02-12T15:36:21.193Z,14.55
2023-02-12T15:38:53.752Z,14.98
2023-02-12T15:41:40.126Z,12.02
2023-02-12T15:44:22.438Z,15.18
2023-02-12T15:46:59.116Z,13.00
2023-02-12T15:49:35.594Z,14.02
2023-02-12T15:52:08.932Z,12.77
2023-02-12T15:54:38.557Z,13.63
2023-02-12T15:57:16.087Z,14.43
2023-02-12T15:59:46.613Z,13.18
2023-02-12T16:02:22.460Z,12.70
2023-02-12T16:04:51.465Z,14.05
2023-02-12T16:07:21.573Z,13.25
2023-02-12T16:09:52.249Z,14.15
2023-02-12T16:12:26.362Z,13.57
2023-02-12T16:14:56.958Z,11.75
2023-02-12T16:17:29.817Z,11.18
2023-02-12T16:19:59.781Z,12.48
2023-02-12T16:22:35.806Z,12.27
2023-02-12T16:25:07.521Z,15.07
2023-02-12T16:27:38.313Z,13.38
2023-02-12T16:30:11.017Z,11.85
2023-02-12T16:32:41.741Z,12.48
2023-02-12T16:35:27.546Z,11.05
2023-02-12T16:38:01.012Z,12.07
2023-02-12T16:40:36.185Z,11.60
2023-02-12T16:43:28.027Z,12.13
2023-02-12T16:46:07.986Z,13.80
2023-02-12T16:48:41.553Z,12.18
2023-02-12T16:51:23.439Z,13.25
2023-02-12T16:53:55.375Z,11.95
2023-02-12T16:56:24.284Z,13.38
2023-02-12T16:58:56.156Z,12.75
2023-02-12T17:01:27.614Z,13.25
2023-02-12T17:03:58.551Z,11.35
2023-02-12T17:06:29.080Z,13.73
2023-02-12T17:08:57.164Z,12.20
2023-02-12T17:11:27.059Z,12.23
2023-02-12T17:13:58.448Z,13.95
2023-02-12T17:16:31.750Z,11.95
2023-02-12T17:19:01.423Z,14.32
2023-02-12T17:21:38.401Z,13.23
2023-02-12T17:24:10.396Z,15.23
2023-02-12T17:26:38.646Z,15.10
2023-02-12T17:29:10.217Z,13.82
2023-02-12T17:31:40.657Z,14.63
2023-02-12T17:34:10.241Z,14.23
2023-02-12T17:36:40.469Z,15.13
2023-02-12T17:39:10.798Z,15.35
2023-02-12T17:41:42.683Z,14.80
2023-02-12T17:44:14.225Z,14.30
2023-02-12T17:46:43.833Z,14.40
2023-02-12T17:49:12.524Z,14.65
2023-02-12T17:51:42.332Z,15.50
2023-02-12T17:54:10.850Z,13.38
2023-02-12T17:56:41.126Z,13.95
2023-02-12T17:59:09.551Z,13.27
2023-02-12T18:01:41.206Z,13.52
2023-02-12T18:04:10.138Z,13.73
2023-02-12T18:06:39.623Z,13.15
2023-02-12T18:09:07.982Z,15.40
2023-02-12T18:11:39.160Z,14.00
2023-02-12T18:14:08.351Z,15.10
2023-02-12T18:16:38.838Z,14.38
2023-02-12T18:19:07.463Z,13.35
2023-02-12T18:21:36.141Z,14.07
2023-02-12T18:24:05.347Z,14.43
2023-02-12T18:26:34.072Z,13.88
2023-02-12T18:29:02.873Z,13.93
2023-02-12T18:31:33.757Z,13.63
2023-02-12T18:34:10.281Z,13.20
2023-02-12T18:36:39.358Z,13.98
2023-02-12T18:39:08.810Z,13.50
2023-02-12T18:41:38.275Z,13.02
2023-02-12T18:44:07.962Z,13.52
2023-02-12T18:46:37.780Z,14.48
2023-02-12T18:49:09.992Z,13.35
2023-02-12T18:51:40.073Z,13.20
2023-02-12T18:54:12.758Z,14.13
2023-02-12T18:56:44.950Z,13.90
2023-02-12T18:59:16.492Z,12.73
2023-02-12T19:01:46.694Z,13.35
2023-02-12T19:04:20.754Z,13.18
2023-02-12T19:09:26.018Z,12.32
2023-02-12T19:11:56.819Z,11.70
2023-02-12T19:14:28.905Z,13.40
2023-02-12T19:16:59.748Z,14.13
2023-02-12T19:19:30.366Z,14.18
2023-02-12T19:22:00.625Z,13.73
2023-02-12T19:24:44.461Z,14.52
2023-02-12T19:27:16.315Z,13.45
2023-02-12T19:29:45.600Z,12.75
2023-02-12T19:32:14.173Z,13.43
2023-02-12T19:34:45.709Z,13.80
2023-02-12T19:37:14.697Z,13.40
2023-02-12T19:39:43.293Z,13.45
2023-02-12T19:42:14.784Z,13.32
2023-02-12T19:44:43.688Z,13.65
2023-02-12T19:47:12.258Z,12.88
2023-02-12T19:49:41.574Z,13.00
2023-02-12T19:52:11.533Z,14.05
2023-02-12T19:54:40.039Z,11.48
2023-02-12T19:57:10.650Z,13.02
2023-02-12T19:59:42.241Z,13.93
2023-02-12T20:02:12.730Z,13.52
2023-02-12T20:04:41.154Z,12.20
2023-02-12T20:07:11.601Z,10.13
2023-02-12T20:09:40.146Z,11.98
2023-02-12T20:12:08.586Z,12.00
2023-02-12T20:14:37.044Z,10.27
2023-02-12T20:17:06.137Z,9.93
2023-02-12T20:19:34.565Z,11.05
2023-02-12T20:22:04.792Z,10.02
2023-02-12T20:24:35.753Z,9.52
2023-02-12T20:27:05.528Z,11.02
2023-02-12T20:29:35.156Z,9.43
2023-02-12T20:32:03.619Z,7.82
2023-02-12T20:34:45.755Z,6.22
2023-02-12T20:37:20.233Z,6.35
2023-02-12T20:39:49.997Z,5.82
2023-02-12T20:42:18.236Z,3.40
2023-02-12T20:44:47.008Z,4.35
2023-02-12T20:47:16.944Z,4.18
2023-02-12T20:49:45.793Z,3.53
2023-02-12T20:52:14.723Z,3.15
2023-02-12T20:54:43.650Z,3.67
2023-02-12T20:57:14.798Z,3.10
2023-02-12T20:59:43.415Z,3.33
2023-02-12T21:02:12.105Z,2.83
2023-02-12T21:04:41.707Z,1.75
2023-02-12T21:07:10.165Z,2.40
2023-02-12T21:09:38.824Z,2.90
2023-02-12T21:12:07.365Z,2.15
2023-02-12T21:14:37.068Z,2.17
2023-02-12T21:17:05.837Z,2.75
2023-02-12T21:19:35.342Z,2.15
2023-02-12T21:22:03.739Z,2.20
2023-02-12T21:24:32.768Z,2.08
2023-02-12T21:27:01.094Z,1.50
2023-02-12T21:29:33.296Z,1.42
2023-02-12T21:32:04.564Z,1.95
2023-02-12T21:34:33.452Z,2.00
2023-02-12T21:37:04.053Z,1.52
2023-02-12T21:39:32.326Z,1.55
2023-02-12T21:42:03.189Z,1.67
2023-02-12T21:44:33.136Z,1.75
2023-02-12T21:47:03.375Z,1.40
2023-02-12T21:49:32.000Z,1.90
2023-02-12T21:52:02.549Z,1.40
2023-02-12T21:54:33.244Z,2.10
2023-02-12T21:57:02.625Z,1.63
2023-02-12T21:59:32.548Z,1.88
2023-02-12T22:02:03.685Z,1.80
2023-02-12T22:04:32.304Z,1.58
2023-02-12T22:07:03.485Z,1.60
2023-02-12T22:09:32.635Z,1.30
2023-02-12T22:12:00.883Z,1.30
2023-02-12T22:14:29.517Z,1.10
2023-02-12T22:16:58.865Z,1.30
2023-02-12T22:19:29.381Z,1.20
2023-02-12T22:21:58.085Z,1.63
2023-02-12T22:24:26.391Z,1.20
2023-02-12T22:26:57.510Z,1.23
2023-02-12T22:29:25.991Z,1.00
2023-02-12T22:31:54.335Z,0.65
2023-02-12T22:34:23.257Z,0.98
2023-02-12T22:36:55.649Z,0.88
2023-02-12T22:39:25.085Z,1.05
2023-02-12T22:41:54.562Z,1.15
2023-02-12T22:44:23.823Z,1.63
2023-02-12T22:46:52.135Z,1.45
2023-02-12T22:49:23.018Z,0.85
2023-02-12T22:51:51.925Z,1.08
2023-02-12T22:54:22.309Z,0.80
2023-02-12T22:56:52.935Z,1.20
2023-02-12T22:59:21.223Z,0.80
2023-02-12T23:01:50.010Z,1.05
2023-02-12T23:04:19.708Z,0.80
2023-02-12T23:06:48.114Z,0.75
2023-02-12T23:09:19.256Z,1.27
2023-02-12T23:11:51.842Z,0.90
2023-02-12T23:14:20.555Z,0.90
2023-02-12T23:16:49.961Z,0.95
2023-02-12T23:19:18.383Z,1.05
2023-02-12T23:21:46.718Z,0.80
2023-02-12T23:24:16.310Z,0.90
2023-02-12T23:26:44.664Z,1.10
2023-02-12T23:29:15.286Z,1.10
2023-02-12T23:31:43.549Z,0.82
2023-02-12T23:34:11.766Z,1.02
2023-02-12T23:36:40.237Z,1.00
2023-02-12T23:39:09.627Z,1.00
2023-02-12T23:41:37.786Z,0.77
2023-02-12T23:44:06.341Z,0.95
2023-02-12T23:46:35.827Z,0.75
2023-02-12T23:49:04.238Z,1.00
2023-02-12T23:51:33.260Z,0.90
2023-02-12T23:54:03.532Z,0.80
2023-02-12T23:56:32.396Z,1.45
2023-02-12T23:59:00.515Z,0.90
